Futenma Marine Corps Air Station
ROTM : now visible

Airfield :











YOU CAN JOIN US ON...

 
LOGIN :

Register | Disclaimer

   EN    FR    IT 

 









Legend :    VFR   Marginal VFR   IFR   Intensive IFR   Very Intensive IFR
Visi :
Ceiling :
>= 8 km
>= 3000ft
5 to 8 km
1000 to 3000 ft
1500m to 5 km
500 to 1000 ft
800 to 1500m
200 to 500 ft
< 800m
< 200 ft
Symbols :   Thunderstorms  Fog  Heavy snow  Heavy precipitations  Wind > 20 kt






- Airport Elevation : 247 ft


ROTM - Futenma Marine Corps Air Station

CURRENT METAR :
  • 230156Z 05009G16KT 6SM BR FEW040 19/09 A3040 RMK AO2 SLP280 T01940094

EXPIRED METARs :
  • 230056Z 03010KT 9000 BR FEW040 18/10 A3040 RMK SLP281 T01830100
  • 222356Z 04008KT 10SM CLR 18/11 A3039 RMK AO2 SLP278 T01780106 10178 20139 51016

TAF TAF ROTM
Valid from the 22 at 21:00 until the 23 at 21:00 UTC


2221/2321 03006KT 9999 FEW040 QNH3029INS
BECMG 2222/2300 03010KT 9999 SCT030 QNH3031INS
TEMPO 2222/2304 03012G18KT 9999 FEW035
FM230600 04012KT 9999 SCT025 BKN035 QNH3028INS T22/2303Z T15/2315Z



MET'MAP, your aeronautical weather chart ! - Copyright ORBIFLY December 2007 - Disclaimer

ORBIFLY MET'MAP TEAM :

Programming & Development : Alexandra Zaïnal
Concept & original design : Baudouin d'Aumeries
Assistance for programming : Marc-Olivier Méhu
Technical & hardware support : Manuel Goepfert

Contact : metmap@orbifly.com




SOURCES & CREDITS :

   NOAA       Earth
Advisory